createdAt,value
2019-02-19T00:01:43.186Z,-21270.86
2019-02-19T00:04:11.482Z,-21265.07
2019-02-19T00:06:41.076Z,-21269.45
2019-02-19T00:09:09.367Z,-21259.83
2019-02-19T00:11:37.665Z,-21266.06
2019-02-19T00:14:05.936Z,-21272.84
2019-02-19T00:16:34.286Z,-21276.38
2019-02-19T00:19:02.635Z,-21259.83
2019-02-19T00:21:31.186Z,-21252.89
2019-02-19T00:24:02.295Z,-21260.11
2019-02-19T00:26:30.557Z,-21264.50
2019-02-19T00:28:58.853Z,-21265.07
2019-02-19T00:31:28.670Z,-21272.70
2019-02-19T00:33:58.572Z,-21264.78
2019-02-19T00:36:26.876Z,-21264.50
2019-02-19T00:38:55.170Z,-21255.16
2019-02-19T00:41:23.496Z,-21257.00
2019-02-19T00:43:53.389Z,-21256.43
2019-02-19T00:46:21.667Z,-21253.88
2019-02-19T00:48:50.009Z,-21262.23
2019-02-19T00:51:18.278Z,-21252.18
2019-02-19T00:53:46.557Z,-21250.34
2019-02-19T00:56:14.828Z,-21262.66
2019-02-19T00:58:43.138Z,-21262.66
2019-02-19T01:01:11.429Z,-21265.07
2019-02-19T01:03:39.687Z,-21255.87
2019-02-19T01:06:07.944Z,-21265.07
2019-02-19T01:08:36.220Z,-21258.70
2019-02-19T01:11:04.543Z,-21274.26
2019-02-19T01:13:32.810Z,-21263.23
2019-02-19T01:16:01.092Z,-21257.99
2019-02-19T01:18:29.397Z,-21265.77
2019-02-19T01:20:57.667Z,-21271.71
2019-02-19T01:23:28.347Z,-21256.01
2019-02-19T01:25:56.610Z,-21268.04
2019-02-19T01:28:24.885Z,-21265.07
2019-02-19T01:30:56.384Z,-21265.21
2019-02-19T01:33:24.658Z,-21260.26
2019-02-19T01:35:52.952Z,-21271.01
2019-02-19T01:38:21.216Z,-21288.40
2019-02-19T01:40:49.493Z,-21266.20
2019-02-19T01:43:17.756Z,-21263.93
2019-02-19T01:45:46.597Z,-21281.19
2019-02-19T01:48:14.848Z,-21284.30
2019-02-19T01:50:43.122Z,-21272.84
2019-02-19T01:53:11.382Z,-21277.37
2019-02-19T01:55:39.638Z,-21283.45
2019-02-19T01:58:07.908Z,-21262.52
2019-02-19T02:00:36.367Z,-21283.88
2019-02-19T02:03:05.091Z,-21259.12
2019-02-19T02:05:33.361Z,-21270.30
2019-02-19T02:08:01.649Z,-21252.18
2019-02-19T02:10:29.910Z,-21277.23
2019-02-19T02:12:58.193Z,-21255.16
2019-02-19T02:15:26.466Z,-21265.49
2019-02-19T02:17:54.745Z,-21260.82
2019-02-19T02:20:23.037Z,-21279.35
2019-02-19T02:22:51.291Z,-21273.27
2019-02-19T02:25:19.542Z,-21265.92
2019-02-19T02:27:48.089Z,-21242.70
2019-02-19T02:30:16.365Z,-21247.52
2019-02-19T02:32:44.652Z,-21245.67
2019-02-19T02:35:13.099Z,-21248.93
2019-02-19T02:37:41.370Z,-21266.34
2019-02-19T02:40:09.983Z,-21263.23
2019-02-19T02:42:38.312Z,-21257.43
2019-02-19T02:45:06.642Z,-21255.73
2019-02-19T02:47:35.022Z,-21257.85
2019-02-19T02:50:03.751Z,-21253.46
2019-02-19T02:52:32.024Z,-21252.32
2019-02-19T02:55:00.423Z,-21269.31
2019-02-19T02:57:28.699Z,-21245.67
2019-02-19T02:59:56.969Z,-21255.45
2019-02-19T03:02:25.252Z,-21262.52
2019-02-19T03:04:53.515Z,-21272.42
2019-02-19T03:07:23.438Z,-21262.66
2019-02-19T03:09:51.714Z,-21265.77
2019-02-19T03:12:19.991Z,-21257.99
2019-02-19T03:14:48.254Z,-21257.99
2019-02-19T03:20:17.910Z,-21250.63
2019-02-19T03:22:46.172Z,-21261.53
2019-02-19T03:25:14.440Z,-21261.11
2019-02-19T03:27:42.705Z,-21261.81
2019-02-19T03:30:11.206Z,-21254.02
2019-02-19T03:32:39.458Z,-21258.56
2019-02-19T03:35:07.793Z,-21245.11
2019-02-19T03:37:36.039Z,-21260.68
2019-02-19T03:40:07.531Z,-21254.31
2019-02-19T03:42:35.467Z,-21260.68
2019-02-19T03:45:06.025Z,-21246.24
2019-02-19T03:47:34.414Z,-21247.93
2019-02-19T03:50:02.862Z,-21237.04
2019-02-19T03:52:31.952Z,-21245.81
2019-02-19T03:55:00.380Z,-21252.32
2019-02-19T03:57:28.680Z,-21252.04
2019-02-19T04:00:00.342Z,-21264.78
2019-02-19T04:02:28.583Z,-21247.09
2019-02-19T04:04:56.915Z,-21246.10
2019-02-19T04:07:25.192Z,-21229.10
2019-02-19T04:09:53.534Z,-21242.13
2019-02-19T04:12:21.799Z,-21248.64
2019-02-19T04:14:50.052Z,-21258.42
2019-02-19T04:17:18.326Z,-21245.53
2019-02-19T04:19:46.601Z,-21246.38
2019-02-19T04:22:14.863Z,-21240.15
2019-02-19T04:24:43.113Z,-21241.00
2019-02-19T04:27:11.368Z,-21222.30
2019-02-19T04:29:42.693Z,-21244.54
2019-02-19T04:32:10.948Z,-21241.00
2019-02-19T04:34:39.207Z,-21245.11
2019-02-19T04:37:07.461Z,-21243.69
2019-02-19T04:39:35.744Z,-21230.94
2019-02-19T04:42:04.262Z,-21251.20
2019-02-19T04:44:32.783Z,-21241.71
2019-02-19T04:47:01.437Z,-21243.41
2019-02-19T04:49:29.675Z,-21255.16
2019-02-19T04:51:57.953Z,-21246.95
2019-02-19T04:54:26.217Z,-21250.06
2019-02-19T04:56:54.466Z,-21245.53
2019-02-19T04:59:22.745Z,-21245.11
2019-02-19T05:01:51.014Z,-21236.18
2019-02-19T05:04:19.309Z,-21250.48
2019-02-19T05:06:47.571Z,-21260.11
2019-02-19T05:09:15.844Z,-21256.57
2019-02-19T05:11:44.116Z,-21246.38
2019-02-19T05:14:12.370Z,-21237.17
2019-02-19T05:16:41.286Z,-21250.48
2019-02-19T05:19:09.674Z,-21242.98
2019-02-19T05:21:48.213Z,-21261.53
2019-02-19T05:24:16.476Z,-21255.01
2019-02-19T05:26:44.742Z,-21247.23
2019-02-19T05:29:12.995Z,-21242.42
2019-02-19T05:31:41.264Z,-21262.52
2019-02-19T05:34:09.525Z,-21241.85
2019-02-19T05:36:37.802Z,-21256.29
2019-02-19T05:39:06.343Z,-21254.02
2019-02-19T05:41:34.616Z,-21280.48
2019-02-19T05:44:02.876Z,-21255.45
2019-02-19T05:46:31.145Z,-21262.66
2019-02-19T05:48:59.416Z,-21278.08
2019-02-19T05:51:27.673Z,-21243.55
2019-02-19T05:53:56.370Z,-21263.51
2019-02-19T05:56:24.573Z,-21256.57
2019-02-19T05:58:52.842Z,-21266.20
2019-02-19T06:01:21.114Z,-21273.70
2019-02-19T06:03:49.443Z,-21271.85
2019-02-19T06:06:17.707Z,-21288.96
2019-02-19T06:08:46.001Z,-21288.54
2019-02-19T06:11:14.295Z,-21259.55
2019-02-19T06:13:42.573Z,-21257.00
2019-02-19T06:16:10.860Z,-21254.31
2019-02-19T06:18:39.192Z,-21260.82
2019-02-19T06:21:07.986Z,-21260.96
2019-02-19T06:23:36.760Z,-21259.12
2019-02-19T06:26:05.039Z,-21254.73
2019-02-19T06:28:33.351Z,-21245.96
2019-02-19T06:31:01.631Z,-21270.16
2019-02-19T06:33:29.963Z,-21254.31
2019-02-19T06:35:58.336Z,-21244.96
2019-02-19T06:38:26.653Z,-21248.64
2019-02-19T06:41:02.783Z,-21260.82
2019-02-19T06:43:34.078Z,-21252.61
2019-02-19T06:46:02.741Z,-21245.96
2019-02-19T06:48:31.140Z,-21231.51
2019-02-19T06:50:59.554Z,-21243.69
2019-02-19T06:53:27.886Z,-21248.93
2019-02-19T06:55:56.201Z,-21248.93
2019-02-19T06:58:24.527Z,-21219.46
2019-02-19T07:00:52.844Z,-21220.03
2019-02-19T07:03:25.508Z,-21233.92
2019-02-19T07:05:53.951Z,-21220.03
2019-02-19T07:08:22.296Z,-21225.84
2019-02-19T07:10:50.621Z,-21211.24
2019-02-19T07:13:18.964Z,-21236.18
2019-02-19T07:15:47.255Z,-21219.74
2019-02-19T07:18:15.661Z,-21237.74
2019-02-19T07:20:43.945Z,-21222.58
2019-02-19T07:23:12.270Z,-21230.23
2019-02-19T07:25:40.603Z,-21231.37
2019-02-19T07:28:09.026Z,-21234.77
2019-02-19T07:30:37.455Z,-21223.01
2019-02-19T07:33:05.847Z,-21242.42
2019-02-19T07:35:34.179Z,-21245.39
2019-02-19T07:38:02.585Z,-21249.50
2019-02-19T07:40:30.937Z,-21228.96
2019-02-19T07:43:00.752Z,-21228.96
2019-02-19T07:45:29.315Z,-21227.96
2019-02-19T07:47:57.593Z,-21225.56
2019-02-19T07:50:26.059Z,-21227.40
2019-02-19T07:52:54.429Z,-21245.81
2019-02-19T07:55:22.805Z,-21239.30
2019-02-19T07:57:51.219Z,-21247.66
2019-02-19T08:00:19.661Z,-21236.47
2019-02-19T08:02:47.959Z,-21229.67
2019-02-19T08:05:16.339Z,-21237.32
2019-02-19T08:07:44.668Z,-21236.89
2019-02-19T08:10:14.483Z,-21234.63
2019-02-19T08:12:42.818Z,-21233.35
2019-02-19T08:15:11.934Z,-21225.98
2019-02-19T08:17:40.354Z,-21226.69
2019-02-19T08:20:16.010Z,-21229.67
2019-02-19T08:22:40.260Z,-21238.45
2019-02-19T08:25:08.650Z,-21232.79
2019-02-19T08:27:36.986Z,-21235.34
2019-02-19T08:30:08.255Z,-21217.76
2019-02-19T08:32:36.556Z,-21235.34
2019-02-19T08:35:06.434Z,-21226.13
2019-02-19T08:37:34.750Z,-21227.26
2019-02-19T08:40:03.152Z,-21236.89
2019-02-19T08:42:31.608Z,-21225.13
2019-02-19T08:45:00.962Z,-21223.43
2019-02-19T08:47:29.316Z,-21228.11
2019-02-19T08:49:58.939Z,-21220.74
2019-02-19T08:52:27.270Z,-21234.91
2019-02-19T08:54:55.552Z,-21219.04
2019-02-19T08:57:23.966Z,-21208.40
2019-02-19T08:59:52.319Z,-21214.36
2019-02-19T09:02:20.754Z,-21221.45
2019-02-19T09:04:49.255Z,-21214.07
2019-02-19T09:07:17.591Z,-21207.41
2019-02-19T09:09:47.564Z,-21206.55
2019-02-19T09:12:15.872Z,-21227.12
2019-02-19T09:14:44.203Z,-21219.89
2019-02-19T09:17:12.633Z,-21214.21
2019-02-19T09:19:41.044Z,-21218.47
2019-02-19T09:22:09.530Z,-21207.27
2019-02-19T09:24:37.867Z,-21201.17
2019-02-19T09:27:06.259Z,-21201.03
2019-02-19T09:29:34.681Z,-21225.98
2019-02-19T09:32:03.058Z,-21264.93
2019-02-19T09:34:31.393Z,-21205.99
2019-02-19T09:36:59.837Z,-21221.87
2019-02-19T09:39:28.143Z,-21231.51
2019-02-19T09:41:56.497Z,-21194.21
2019-02-19T09:44:25.034Z,-21216.05
2019-02-19T09:46:53.377Z,-21206.55
2019-02-19T09:49:21.703Z,-21224.28
2019-02-19T09:51:50.079Z,-21227.68
2019-02-19T09:54:18.402Z,-21213.22
2019-02-19T09:56:46.713Z,-21237.04
2019-02-19T09:59:15.133Z,-21242.42
2019-02-19T10:01:43.436Z,-21226.83
2019-02-19T10:04:11.757Z,-21233.49
2019-02-19T10:06:41.736Z,-21222.30
2019-02-19T10:09:10.065Z,-21239.44
2019-02-19T10:11:38.435Z,-21211.66
2019-02-19T10:14:06.944Z,-21204.00
2019-02-19T10:16:41.453Z,-21232.64
2019-02-19T10:19:05.372Z,-21243.55
2019-02-19T10:21:33.696Z,-21251.33
2019-02-19T10:24:02.021Z,-21227.96
2019-02-19T10:26:30.374Z,-21225.98
2019-02-19T10:29:07.209Z,-21227.68
2019-02-19T10:31:47.550Z,-21213.79
2019-02-19T10:34:15.889Z,-21233.21
2019-02-19T10:36:44.221Z,-21219.18
2019-02-19T10:39:12.744Z,-21245.81
2019-02-19T10:41:41.699Z,-21245.25
2019-02-19T10:44:09.992Z,-21257.00
2019-02-19T10:46:38.362Z,-21240.01
2019-02-19T10:49:06.717Z,-21220.60
2019-02-19T10:51:35.257Z,-21208.26
2019-02-19T10:54:03.487Z,-21224.28
2019-02-19T10:56:33.803Z,-21213.50
2019-02-19T10:59:02.195Z,-21223.29
2019-02-19T11:01:30.716Z,-21203.86
2019-02-19T11:03:59.042Z,-21214.78
2019-02-19T11:06:27.302Z,-21228.68
2019-02-19T11:08:55.748Z,-21229.38
2019-02-19T11:11:24.036Z,-21240.43
2019-02-19T11:13:52.668Z,-21220.03
2019-02-19T11:16:21.094Z,-21219.32
2019-02-19T11:18:51.839Z,-21227.12
2019-02-19T11:21:20.375Z,-21239.87
2019-02-19T11:23:48.688Z,-21230.52
2019-02-19T11:26:21.717Z,-21237.74
2019-02-19T11:28:50.010Z,-21278.36
2019-02-19T11:31:18.405Z,-21278.93
2019-02-19T11:33:46.708Z,-21263.93
2019-02-19T11:36:15.021Z,-21265.63
2019-02-19T11:38:43.360Z,-21258.84
2019-02-19T11:41:19.153Z,-21290.38
2019-02-19T11:43:47.526Z,-21277.37
2019-02-19T11:46:15.840Z,-21269.87
2019-02-19T11:48:44.139Z,-21270.02
2019-02-19T11:51:12.438Z,-21284.44
2019-02-19T11:53:40.751Z,-21273.41
2019-02-19T11:56:09.088Z,-21263.65
2019-02-19T11:58:37.366Z,-21276.80
2019-02-19T12:01:06.183Z,-21269.31
2019-02-19T12:03:34.508Z,-21276.95
2019-02-19T12:06:02.841Z,-21284.30
2019-02-19T12:08:38.894Z,-21302.11
2019-02-19T12:11:01.294Z,-21333.02
2019-02-19T12:13:29.590Z,-21309.59
2019-02-19T12:15:57.982Z,-21378.11
2019-02-19T12:18:26.266Z,-21456.93
2019-02-19T12:20:54.562Z,-21411.72
2019-02-19T12:23:22.920Z,-21350.36
2019-02-19T12:25:53.712Z,-21354.87
2019-02-19T12:28:23.219Z,-21405.68
2019-02-19T12:30:51.507Z,-21414.54
2019-02-19T12:33:19.979Z,-21417.63
2019-02-19T12:35:48.247Z,-21380.08
2019-02-19T12:38:16.555Z,-21355.71
2019-02-19T12:40:44.979Z,-21406.25
2019-02-19T12:43:13.282Z,-21405.54
2019-02-19T12:45:41.663Z,-21427.74
2019-02-19T12:48:10.008Z,-21492.52
2019-02-19T12:50:38.327Z,-21446.13
2019-02-19T12:53:06.595Z,-21503.15
2019-02-19T12:55:34.883Z,-21455.24
2019-02-19T12:58:03.268Z,-21489.16
2019-02-19T13:00:32.130Z,-21504.13
2019-02-19T13:03:00.639Z,-21463.38
2019-02-19T13:05:29.192Z,-21503.15
2019-02-19T13:07:57.511Z,-21467.45
2019-02-19T13:10:25.916Z,-21485.38
2019-02-19T13:12:54.364Z,-21449.64
2019-02-19T13:15:22.956Z,-21410.04
2019-02-19T13:17:51.366Z,-21387.96
2019-02-19T13:20:19.641Z,-21461.83
2019-02-19T13:22:48.073Z,-21474.31
2019-02-19T13:25:16.737Z,-21534.75
2019-02-19T13:27:45.615Z,-21509.31
2019-02-19T13:30:16.848Z,-21481.73
2019-02-19T13:32:45.153Z,-21495.88
2019-02-19T13:35:14.180Z,-21494.05
2019-02-19T13:37:43.356Z,-21528.04
2019-02-19T13:40:13.908Z,-21537.40
2019-02-19T13:42:42.563Z,-21511.82
2019-02-19T13:45:13.884Z,-21511.55
2019-02-19T13:47:43.123Z,-21510.99
2019-02-19T13:50:17.141Z,-21475.85
2019-02-19T13:52:47.076Z,-21471.23
2019-02-19T13:55:17.170Z,-21459.31
2019-02-19T13:57:45.529Z,-21524.27
2019-02-19T14:00:15.569Z,-21501.75
2019-02-19T14:02:44.754Z,-21479.35
2019-02-19T14:05:13.120Z,-21509.73
2019-02-19T14:07:41.423Z,-21464.21
2019-02-19T14:10:11.354Z,-21436.44
2019-02-19T14:12:39.700Z,-21451.74
2019-02-19T14:15:11.990Z,-21490.98
2019-02-19T14:17:40.406Z,-21546.33
2019-02-19T14:20:10.483Z,-21501.47
2019-02-19T14:22:43.241Z,-21484.82
2019-02-19T14:25:31.680Z,-21406.81
2019-02-19T14:28:10.810Z,-21438.97
2019-02-19T14:30:40.781Z,-21473.47
2019-02-19T14:33:10.763Z,-21443.74
2019-02-19T14:35:40.685Z,-21461.83
2019-02-19T14:38:16.952Z,-21458.89
2019-02-19T14:41:05.116Z,-21421.84
2019-02-19T14:43:41.525Z,-21473.05
2019-02-19T14:46:23.299Z,-21536.56
2019-02-19T14:49:09.179Z,-21471.93
2019-02-19T14:51:55.588Z,-21436.30
2019-02-19T14:54:40.653Z,-21464.92
2019-02-19T14:57:19.580Z,-21473.75
2019-02-19T15:00:10.772Z,-21426.34
2019-02-19T15:02:59.642Z,-21497.69
2019-02-19T15:05:45.584Z,-21483.27
2019-02-19T15:08:33.564Z,-21471.93
2019-02-19T15:11:05.940Z,-21519.09
2019-02-19T15:13:48.176Z,-21466.61
2019-02-19T15:16:18.181Z,-21453.29
2019-02-19T15:19:04.293Z,-21404.84
2019-02-19T15:21:52.362Z,-21381.21
2019-02-19T15:24:22.367Z,-21355.58
2019-02-19T15:26:52.321Z,-21357.12
2019-02-19T15:29:34.222Z,-21361.91
2019-02-19T15:32:07.319Z,-21376.98
2019-02-19T15:34:37.245Z,-21393.44
2019-02-19T15:37:16.492Z,-21366.42
2019-02-19T15:39:58.375Z,-21361.35
2019-02-19T15:42:28.542Z,-21376.14
2019-02-19T15:45:16.670Z,-21394.01
2019-02-19T15:48:01.916Z,-21399.07
2019-02-19T15:50:48.052Z,-21376.56
2019-02-19T15:56:17.633Z,-21389.65
2019-02-19T15:58:55.992Z,-21383.60
2019-02-19T16:01:30.658Z,-21341.76
2019-02-19T16:04:08.131Z,-21372.20
2019-02-19T16:06:54.190Z,-21378.67
2019-02-19T16:09:32.934Z,-21380.22
2019-02-19T16:12:05.471Z,-21362.34
2019-02-19T16:14:43.932Z,-21363.89
2019-02-19T16:17:19.861Z,-21358.95
2019-02-19T16:19:56.790Z,-21333.86
2019-02-19T16:22:24.556Z,-21351.21
2019-02-19T16:28:04.833Z,-21365.30
2019-02-19T16:30:43.735Z,-21350.64
2019-02-19T16:33:30.263Z,-21341.20
2019-02-19T16:36:03.170Z,-21346.70
2019-02-19T16:38:38.822Z,-21357.83
2019-02-19T16:41:08.830Z,-21324.70
2019-02-19T16:43:44.827Z,-21331.46
2019-02-19T16:46:17.602Z,-21357.83
2019-02-19T16:48:50.205Z,-21350.08
2019-02-19T16:51:28.727Z,-21351.63
2019-02-19T16:54:04.576Z,-21336.12
2019-02-19T16:56:34.611Z,-21349.38
2019-02-19T16:59:07.966Z,-21342.89
2019-02-19T17:01:54.302Z,-21334.99
2019-02-19T17:04:27.275Z,-21321.59
2019-02-19T17:06:57.545Z,-21322.29
2019-02-19T17:09:27.600Z,-21335.70
2019-02-19T17:11:57.600Z,-21323.28
2019-02-19T17:14:39.379Z,-21308.18
2019-02-19T17:17:15.206Z,-21297.87
2019-02-19T17:22:35.491Z,-21311.29
2019-02-19T17:25:16.185Z,-21303.80
2019-02-19T17:28:09.792Z,-21306.20
2019-02-19T17:30:55.966Z,-21295.61
2019-02-19T17:33:25.953Z,-21300.55
2019-02-19T17:36:14.904Z,-21293.20
2019-02-19T17:38:44.803Z,-21282.32
2019-02-19T17:41:31.337Z,-21287.41
2019-02-19T17:44:10.374Z,-21291.09
2019-02-19T17:46:45.998Z,-21293.06
2019-02-19T17:49:15.952Z,-21269.17
2019-02-19T17:51:48.829Z,-21284.58
2019-02-19T17:54:19.435Z,-21297.16
2019-02-19T17:57:06.162Z,-21294.05
2019-02-19T17:59:41.696Z,-21292.64
2019-02-19T18:02:14.694Z,-21275.68
2019-02-19T18:04:50.102Z,-21296.17
2019-02-19T18:07:35.048Z,-21294.05
2019-02-19T18:10:05.295Z,-21298.43
2019-02-19T18:12:41.227Z,-21300.13
2019-02-19T18:15:26.724Z,-21316.50
2019-02-19T18:18:02.335Z,-21276.52
2019-02-19T18:20:30.707Z,-21280.63
2019-02-19T18:22:59.036Z,-21290.80
2019-02-19T18:25:27.521Z,-21296.46
2019-02-19T18:27:55.889Z,-21285.57
2019-02-19T18:30:24.266Z,-21307.47
2019-02-19T18:32:52.580Z,-21284.86
2019-02-19T18:35:21.132Z,-21279.91
2019-02-19T18:41:18.357Z,-21283.88
2019-02-19T18:47:17.089Z,-21313.12
2019-02-19T18:49:48.458Z,-21325.26
2019-02-19T18:52:16.718Z,-21295.89
2019-02-19T18:54:45.023Z,-21292.21
2019-02-19T18:57:13.313Z,-21309.73
2019-02-19T18:59:41.647Z,-21299.84
2019-02-19T19:02:09.934Z,-21290.23
2019-02-19T19:04:38.567Z,-21303.38
2019-02-19T19:07:06.869Z,-21287.55
2019-02-19T19:09:35.171Z,-21270.02
2019-02-19T19:12:03.529Z,-21307.47
2019-02-19T19:14:31.833Z,-21290.38
2019-02-19T19:17:00.126Z,-21309.02
2019-02-19T19:19:28.422Z,-21295.18
2019-02-19T19:21:56.704Z,-21292.21
2019-02-19T19:24:25.007Z,-21288.12
2019-02-19T19:26:53.424Z,-21273.55
2019-02-19T19:29:21.710Z,-21292.36
2019-02-19T19:31:50.222Z,-21254.02
2019-02-19T19:34:18.657Z,-21263.23
2019-02-19T19:36:46.937Z,-21273.41
2019-02-19T19:39:15.324Z,-21262.80
2019-02-19T19:41:43.657Z,-21282.32
2019-02-19T19:44:11.993Z,-21288.54
2019-02-19T19:46:41.182Z,-21301.96
2019-02-19T19:49:09.518Z,-21286.84
2019-02-19T19:51:37.844Z,-21285.43
2019-02-19T19:54:06.129Z,-21255.16
2019-02-19T19:56:34.413Z,-21258.28
2019-02-19T19:59:02.717Z,-21267.90
2019-02-19T20:01:31.163Z,-21278.93
2019-02-19T20:03:59.424Z,-21260.96
2019-02-19T20:06:27.823Z,-21291.23
2019-02-19T20:08:56.122Z,-21278.08
2019-02-19T20:11:24.409Z,-21298.29
2019-02-19T20:13:52.791Z,-21286.13
2019-02-19T20:16:21.521Z,-21272.56
2019-02-19T20:18:49.962Z,-21271.85
2019-02-19T20:21:26.488Z,-21273.70
2019-02-19T20:23:49.983Z,-21250.91
2019-02-19T20:26:19.162Z,-21261.95
2019-02-19T20:28:47.916Z,-21258.70
2019-02-19T20:31:16.874Z,-21264.50
2019-02-19T20:33:45.660Z,-21259.97
2019-02-19T20:36:13.913Z,-21271.85
2019-02-19T20:38:42.670Z,-21274.40
2019-02-19T20:41:11.096Z,-21247.52
2019-02-19T20:43:39.375Z,-21262.38
2019-02-19T20:46:08.378Z,-21244.25
2019-02-19T20:48:37.001Z,-21254.87
2019-02-19T20:51:05.319Z,-21238.73
2019-02-19T20:53:33.645Z,-21257.57
2019-02-19T20:56:02.528Z,-21251.76
2019-02-19T20:58:30.821Z,-21252.46
2019-02-19T21:00:59.125Z,-21251.20
2019-02-19T21:03:27.426Z,-21239.58
2019-02-19T21:05:55.708Z,-21243.41
2019-02-19T21:08:24.063Z,-21227.54
2019-02-19T21:10:53.907Z,-21222.30
2019-02-19T21:13:22.406Z,-21242.98
2019-02-19T21:15:50.729Z,-21245.53
2019-02-19T21:18:20.320Z,-21233.21
2019-02-19T21:20:48.616Z,-21242.70
2019-02-19T21:23:17.158Z,-21246.24
2019-02-19T21:25:45.569Z,-21247.37
2019-02-19T21:28:13.934Z,-21232.50
2019-02-19T21:30:42.437Z,-21230.80
2019-02-19T21:33:11.186Z,-21251.20
2019-02-19T21:35:39.515Z,-21232.93
2019-02-19T21:38:10.939Z,-21253.74
2019-02-19T21:40:39.454Z,-21252.61
2019-02-19T21:43:07.855Z,-21243.41
2019-02-19T21:45:37.562Z,-21236.47
2019-02-19T21:48:05.888Z,-21219.32
2019-02-19T21:50:34.278Z,-21228.11
2019-02-19T21:53:02.588Z,-21255.01
2019-02-19T21:55:30.920Z,-21237.74
2019-02-19T21:57:59.797Z,-21229.24
2019-02-19T22:00:28.292Z,-21257.85
2019-02-19T22:02:56.703Z,-21233.63
2019-02-19T22:05:25.050Z,-21232.50
2019-02-19T22:07:53.339Z,-21241.00
2019-02-19T22:10:21.679Z,-21238.45
2019-02-19T22:12:50.045Z,-21230.52
2019-02-19T22:15:18.318Z,-21236.61
2019-02-19T22:17:46.624Z,-21226.69
2019-02-19T22:20:31.310Z,-21243.41
2019-02-19T22:22:59.636Z,-21246.95
2019-02-19T22:25:28.236Z,-21263.23
2019-02-19T22:27:56.557Z,-21274.12
2019-02-19T22:30:24.833Z,-21223.43
2019-02-19T22:32:53.218Z,-21227.12
2019-02-19T22:35:21.599Z,-21237.32
2019-02-19T22:37:49.922Z,-21233.78
2019-02-19T22:40:18.200Z,-21219.18
2019-02-19T22:42:46.537Z,-21241.85
2019-02-19T22:45:14.964Z,-21238.87
2019-02-19T22:47:43.243Z,-21261.81
2019-02-19T22:50:11.646Z,-21240.29
2019-02-19T22:52:39.909Z,-21230.23
2019-02-19T22:55:23.460Z,-21255.01
2019-02-19T22:57:51.876Z,-21275.25
2019-02-19T23:00:49.302Z,-21235.90
2019-02-19T23:03:19.307Z,-21263.93
2019-02-19T23:05:47.573Z,-21255.16
2019-02-19T23:08:15.889Z,-21251.05
2019-02-19T23:10:44.402Z,-21235.19
2019-02-19T23:13:12.681Z,-21220.88
2019-02-19T23:15:41.075Z,-21213.79
2019-02-19T23:18:09.366Z,-21237.74
2019-02-19T23:20:37.666Z,-21243.26
2019-02-19T23:23:05.974Z,-21268.46
2019-02-19T23:25:34.337Z,-21269.31
2019-02-19T23:28:02.776Z,-21240.57
2019-02-19T23:30:31.066Z,-21222.02
2019-02-19T23:32:59.374Z,-21243.55
2019-02-19T23:35:29.322Z,-21243.98
2019-02-19T23:37:57.713Z,-21233.92
2019-02-19T23:40:25.982Z,-21207.27
2019-02-19T23:42:54.244Z,-21217.48
2019-02-19T23:45:22.529Z,-21243.69
2019-02-19T23:47:50.836Z,-21211.66
2019-02-19T23:50:19.146Z,-21228.25
2019-02-19T23:52:47.415Z,-21238.45
2019-02-19T23:55:15.718Z,-21234.48
2019-02-19T23:57:44.024Z,-21220.88
